Sasakwa, Oklahoma
Current Conditions -  °F | °C
As of 7:35 PM on Thursday 18 Dec 2014 (Local Time) from KADH Reporting Station
Haze Haze  
Wind Chill: 41°   Ceiling: 200
Heat Index: 41°   Visibility: 4mi
Dew Point: 41°   Wind: 3mph
Humidity: 100%   Direction: 40°NE
Pressure: 30.19"   Gusts: NA
Location:  34.95°N, 96.53°W
Report Text: KADH 190135Z AUTO 04003KT 4SM BR OVC002 05/05 A3019 RMK AO2
Loading
Personal Weather Stations






























Interactive Weather Map New forecast layout! Learn more

10-Day Weather Forecast

Advertisements
Track Severe Weather on mobile